Eglin Air Force Base
KVPS : now visible

Airfield :











YOU CAN JOIN US ON...

 
LOGIN :

Register | Disclaimer

   EN    FR    IT 

 









Legend :    VFR   Marginal VFR   IFR   Intensive IFR   Very Intensive IFR
Visi :
Ceiling :
>= 8 km
>= 3000ft
5 to 8 km
1000 to 3000 ft
1500m to 5 km
500 to 1000 ft
800 to 1500m
200 to 500 ft
< 800m
< 200 ft
Symbols :   Thunderstorms  Fog  Heavy snow  Heavy precipitations  Wind > 20 kt






- Airport Elevation : 87 ft
- IATA code : VPS


KVPS - Eglin Air Force Base

CURRENT METAR :
  • 031356Z AUTO 01004KT 10SM OVC005 24/23 A2995 RMK AO2 DZB13E28DZB28E28 CIG 004 RWY19 SLP148 P0000 T02420230 $

EXPIRED METARs :
  • 031333Z AUTO 36005KT 10SM OVC005 24/23 A2994 RMK AO2 DZB13E28DZB28E28 CIG 003 RWY19 SLP145 $
  • 031328Z AUTO 01005KT 10SM BKN004 24/23 A2994 RMK AO2 DZB13E28DZB28 CIG 003 RWY19 SLP145 $
  • 031313Z AUTO 01005KT 10SM -DZ BKN004 24/23 A2994 RMK AO2 DZB13 CIG 003 RWY19 SLP145 $
  • 031256Z AUTO 36004KT 10SM BKN004 BKN110 24/23 A2993 RMK AO2 CIG 003 RWY19 SLP141 T02350226 $
  • 031242Z AUTO 36005KT 10SM BKN004 BKN110 23/22 A2993 RMK AO2 CIG 003 RWY19 SLP141 $
  • 031228Z 01004KT 10SM BKN003 OVC150 23/22 A2993 RMK LTG DSNT SE SLP141 $
  • 031206Z AUTO 01006KT 10SM BKN003 BKN150 23/22 A2992 RMK AO2 LTG DSNT SE-S SLP138 $
  • 031156Z AUTO 36003KT 10SM BKN004 OVC120 23/22 A2992 RMK AO2 LTG DSNT SE-S CIG 003 RWY01 CIG 003 RWY30 SLP138 7//// T02280219 10249 20227 53006 $
  • 031140Z AUTO 36003KT 10SM BKN004 BKN120 OVC150 23/22 A2993 RMK AO2 CIG 004V130 BKN004 V SCT SLP141 $
  • 031120Z AUTO 34005KT 10SM FEW003 BKN140 BKN160 BKN180 23/22 A2992 RMK AO2 SLP138 $

TAF AMD TAF KVPS
Valid from the 03 at 12:00 until the 04 at 15:00 UTC


031225Z 0312/0415 36003KT 9999 BKN003 BKN020 OVC150 QNH2992INS
TEMPO 0312/0315 9999 VCSH FEW005 BKN025 BKN150
BECMG 0314/0315 01007KT 9999 VCSH SCT011 BKN025 QNH2990INS
BECMG 0317/0318 02010G15KT 9999 -SHRA VCTS BKN025CB BKN150 QNH2989INS
TEMPO 0317/0400 31010G20KT 4800 -TSRA BKN035CB
BECMG 0401/0402 02009KT 9999 NSW BKN035 BKN120 QNH2992INS
BECMG 0407/0408 34006KT 8000 -SHRA SCT017 QNH2995INS TX30/0320Z TN23/0312Z
KZJX FIR / North America



MET'MAP, your aeronautical weather chart ! - Copyright ORBIFLY December 2007 - Disclaimer

ORBIFLY MET'MAP TEAM :

Programming & Development : Alexandra Zaïnal
Concept & original design : Baudouin d'Aumeries
Assistance for programming : Marc-Olivier Méhu
Technical & hardware support : Manuel Goepfert

Contact : metmap@orbifly.com




SOURCES & CREDITS :

   NOAA       Earth
Advisory